createdAt,value
2022-10-30T00:04:24.859Z,17.50
2022-10-30T00:09:24.855Z,17.40
2022-10-30T00:19:25.751Z,17.30
2022-10-30T00:29:25.413Z,17.20
2022-10-30T00:39:25.048Z,17.00
2022-10-30T00:44:39.571Z,17.10
2022-10-30T00:49:25.276Z,16.90
2022-10-30T00:54:25.164Z,17.00
2022-10-30T00:59:29.378Z,16.80
2022-10-30T01:19:29.075Z,16.70
2022-10-30T01:29:44.953Z,16.60
2022-10-30T01:34:32.520Z,16.70
2022-10-30T01:39:30.749Z,16.60
2022-10-30T01:59:33.241Z,16.50
2022-10-30T02:09:25.424Z,16.40
2022-10-30T02:19:25.332Z,16.30
2022-10-30T02:24:25.204Z,16.10
2022-10-30T02:29:25.287Z,16.20
2022-10-30T02:39:25.310Z,16.00
2022-10-30T02:44:25.250Z,15.90
2022-10-30T02:54:26.718Z,16.00
2022-10-30T02:59:25.301Z,15.90
2022-10-30T03:19:25.376Z,15.80
2022-10-30T03:34:26.591Z,15.70
2022-10-30T03:39:25.393Z,15.50
2022-10-30T03:54:25.461Z,15.60
2022-10-30T03:59:25.464Z,15.50
2022-10-30T04:14:25.572Z,15.40
2022-10-30T04:29:25.592Z,15.30
2022-10-30T04:34:25.618Z,15.40
2022-10-30T04:39:27.855Z,15.30
2022-10-30T04:44:25.596Z,15.20
2022-10-30T04:49:25.734Z,15.10
2022-10-30T04:54:27.616Z,15.20
2022-10-30T05:04:25.705Z,15.30
2022-10-30T05:09:25.632Z,15.10
2022-10-30T05:44:47.367Z,15.30
2022-10-30T05:49:25.726Z,15.20
2022-10-30T05:59:25.842Z,15.10
2022-10-30T06:04:27.176Z,15.20
2022-10-30T06:09:25.805Z,15.10
2022-10-30T06:14:25.852Z,15.00
2022-10-30T06:34:26.233Z,15.10
2022-10-30T06:39:25.843Z,15.00
2022-10-30T06:49:25.936Z,14.80
2022-10-30T06:54:25.887Z,14.90
2022-10-30T07:04:25.956Z,15.00
2022-10-30T07:09:25.951Z,14.90
2022-10-30T07:14:26.042Z,15.00
2022-10-30T07:19:26.177Z,15.10
2022-10-30T07:34:26.014Z,15.30
2022-10-30T07:49:28.870Z,15.20
2022-10-30T07:59:26.073Z,15.40
2022-10-30T08:04:26.124Z,15.60
2022-10-30T08:09:26.166Z,15.80
2022-10-30T08:14:26.164Z,16.10
2022-10-30T08:19:26.160Z,16.30
2022-10-30T08:24:27.427Z,16.40
2022-10-30T08:29:26.263Z,16.50
2022-10-30T08:34:26.993Z,16.80
2022-10-30T08:44:26.208Z,17.00
2022-10-30T08:49:26.246Z,17.10
2022-10-30T08:54:26.246Z,17.20
2022-10-30T09:04:26.270Z,17.30
2022-10-30T09:09:26.267Z,16.90
2022-10-30T09:14:29.066Z,17.00
2022-10-30T09:24:26.336Z,17.30
2022-10-30T09:29:26.519Z,17.40
2022-10-30T09:39:28.932Z,17.90
2022-10-30T09:44:39.973Z,18.40
2022-10-30T09:49:46.542Z,18.60
2022-10-30T09:54:37.182Z,18.90
2022-10-30T09:59:27.415Z,19.10
2022-10-30T10:04:39.653Z,19.40
2022-10-30T10:09:28.641Z,19.60
2022-10-30T10:14:30.715Z,19.80
2022-10-30T10:19:32.510Z,20.20
2022-10-30T10:24:32.511Z,20.90
2022-10-30T10:29:46.404Z,21.40
2022-10-30T10:34:46.407Z,22.50
2022-10-30T10:39:39.505Z,23.60
2022-10-30T10:44:37.200Z,24.10
2022-10-30T10:49:32.405Z,24.30
2022-10-30T10:54:31.768Z,25.90
2022-10-30T10:59:33.465Z,27.00
2022-10-30T11:04:37.553Z,27.30
2022-10-30T11:09:27.388Z,27.20
2022-10-30T11:14:28.308Z,27.40
2022-10-30T11:19:29.168Z,27.80
2022-10-30T11:24:31.819Z,26.60
2022-10-30T11:29:28.768Z,26.30
2022-10-30T11:34:31.616Z,26.20
2022-10-30T11:39:29.330Z,26.80
2022-10-30T11:44:31.353Z,27.70
2022-10-30T11:49:35.027Z,27.40
2022-10-30T11:54:27.067Z,27.50
2022-10-30T11:59:26.760Z,27.00
2022-10-30T12:04:30.916Z,25.60
2022-10-30T12:09:28.330Z,25.20
2022-10-30T12:14:26.871Z,24.90
2022-10-30T12:19:26.901Z,24.50
2022-10-30T12:24:33.058Z,23.90
2022-10-30T12:30:06.936Z,23.20
2022-10-30T12:34:40.970Z,22.60
2022-10-30T12:39:42.026Z,21.70
2022-10-30T12:44:31.347Z,21.20
2022-10-30T12:49:35.128Z,20.70
2022-10-30T12:54:34.862Z,20.40
2022-10-30T13:04:31.839Z,20.60
2022-10-30T13:09:36.550Z,20.40
2022-10-30T13:14:43.421Z,20.60
2022-10-30T13:19:27.154Z,20.70
2022-10-30T13:24:36.917Z,20.90
2022-10-30T13:29:37.970Z,21.00
2022-10-30T13:39:35.996Z,21.10
2022-10-30T13:44:38.025Z,21.30
2022-10-30T13:49:38.510Z,21.20
2022-10-30T13:54:34.648Z,20.80
2022-10-30T13:59:38.099Z,21.00
2022-10-30T14:04:41.828Z,21.10
2022-10-30T14:09:34.462Z,21.00
2022-10-30T14:19:27.128Z,20.60
2022-10-30T14:24:30.478Z,20.50
2022-10-30T14:29:33.631Z,20.10
2022-10-30T14:34:47.027Z,19.90
2022-10-30T14:39:29.059Z,19.40
2022-10-30T14:44:42.114Z,19.10
2022-10-30T14:49:41.743Z,18.80
2022-10-30T15:09:39.484Z,18.60
2022-10-30T15:14:48.590Z,18.70
2022-10-30T15:19:29.790Z,18.60
2022-10-30T15:29:34.748Z,18.40
2022-10-30T15:44:37.011Z,18.60
2022-10-30T15:49:32.008Z,18.40
2022-10-30T15:54:28.702Z,18.30
2022-10-30T15:59:29.291Z,18.20
2022-10-30T16:04:34.829Z,18.30
2022-10-30T16:14:31.660Z,18.40
2022-10-30T16:19:30.432Z,18.30
2022-10-30T16:29:27.727Z,18.50
2022-10-30T16:34:33.881Z,18.70
2022-10-30T16:39:29.012Z,18.80
2022-10-30T16:44:35.611Z,18.70
2022-10-30T16:49:30.622Z,18.30
2022-10-30T17:09:29.116Z,18.10
2022-10-30T17:14:27.575Z,18.00
2022-10-30T17:19:33.745Z,17.90
2022-10-30T17:24:31.043Z,17.80
2022-10-30T17:29:37.583Z,17.90
2022-10-30T17:34:27.608Z,18.10
2022-10-30T17:44:31.961Z,18.00
2022-10-30T17:59:28.756Z,17.90
2022-10-30T18:09:27.729Z,17.80
2022-10-30T18:19:28.592Z,17.60
2022-10-30T18:24:27.792Z,17.50
2022-10-30T18:29:29.922Z,17.30
2022-10-30T18:34:27.772Z,17.20
2022-10-30T18:39:27.847Z,17.10
2022-10-30T18:44:27.817Z,16.90
2022-10-30T18:49:30.872Z,16.80
2022-10-30T18:54:27.881Z,16.70
2022-10-30T18:59:27.868Z,16.60
2022-10-30T19:14:27.902Z,16.80
2022-10-30T19:19:27.896Z,16.90
2022-10-30T19:24:28.014Z,16.80
2022-10-30T19:39:31.683Z,16.50
2022-10-30T19:44:27.977Z,16.40
2022-10-30T19:49:28.382Z,16.20
2022-10-30T19:54:30.273Z,16.10
2022-10-30T19:59:28.014Z,16.00
2022-10-30T20:04:28.026Z,16.10
2022-10-30T20:09:29.989Z,16.20
2022-10-30T20:14:28.094Z,16.10
2022-10-30T20:19:30.295Z,16.20
2022-10-30T20:24:28.174Z,16.30
2022-10-30T20:29:28.619Z,16.10
2022-10-30T20:34:28.195Z,16.20
2022-10-30T20:39:28.114Z,16.00
2022-10-30T20:44:28.170Z,16.20
2022-10-30T20:49:28.173Z,16.10
2022-10-30T20:54:28.140Z,16.30
2022-10-30T20:59:28.283Z,16.40
2022-10-30T21:04:28.207Z,16.20
2022-10-30T21:09:28.206Z,16.10
2022-10-30T21:14:28.218Z,16.30
2022-10-30T21:19:28.330Z,16.40
2022-10-30T21:24:28.313Z,16.50
2022-10-30T21:29:31.274Z,16.20
2022-10-30T21:34:28.289Z,15.90
2022-10-30T21:39:31.134Z,15.40
2022-10-30T21:44:28.283Z,15.30
2022-10-30T21:49:28.289Z,15.00
2022-10-30T21:59:28.497Z,15.20
2022-10-30T22:04:29.624Z,15.40
2022-10-30T22:09:28.363Z,15.70
2022-10-30T22:14:28.900Z,15.90
2022-10-30T22:34:28.460Z,15.70
2022-10-30T22:39:28.402Z,15.20
2022-10-30T22:44:28.437Z,14.80
2022-10-30T22:49:28.433Z,14.70
2022-10-30T23:04:30.482Z,14.60
2022-10-30T23:14:28.538Z,14.70
2022-10-30T23:29:28.582Z,14.60
2022-10-30T23:34:28.594Z,14.80
2022-10-30T23:44:28.628Z,14.90
2022-10-30T23:59:28.742Z,14.80
